sensor_id;sensor_type;location;lat;lon;timestamp;temperature;humidity
52615;DHT22;38508;53.158;6.614;2022-07-23T00:02:21;17.30;99.90
52615;DHT22;38508;53.158;6.614;2022-07-23T00:04:47;17.30;99.90
52615;DHT22;38508;53.158;6.614;2022-07-23T00:07:12;17.30;99.90
52615;DHT22;38508;53.158;6.614;2022-07-23T00:09:38;17.20;99.90
52615;DHT22;38508;53.158;6.614;2022-07-23T00:12:04;17.20;99.90
52615;DHT22;38508;53.158;6.614;2022-07-23T00:14:30;17.10;99.90
52615;DHT22;38508;53.158;6.614;2022-07-23T00:16:55;17.10;99.90
52615;DHT22;38508;53.158;6.614;2022-07-23T00:19:21;17.10;99.90
52615;DHT22;38508;53.158;6.614;2022-07-23T00:21:47;17.00;99.90
52615;DHT22;38508;53.158;6.614;2022-07-23T00:24:12;17.00;99.90
52615;DHT22;38508;53.158;6.614;2022-07-23T00:26:38;17.00;99.90
52615;DHT22;38508;53.158;6.614;2022-07-23T00:29:03;17.00;99.90
52615;DHT22;38508;53.158;6.614;2022-07-23T00:31:29;17.00;99.90
52615;DHT22;38508;53.158;6.614;2022-07-23T00:33:55;17.10;99.90
52615;DHT22;38508;53.158;6.614;2022-07-23T00:36:27;17.10;99.90
52615;DHT22;38508;53.158;6.614;2022-07-23T00:38:52;17.00;99.90
52615;DHT22;38508;53.158;6.614;2022-07-23T00:41:19;17.10;99.90
52615;DHT22;38508;53.158;6.614;2022-07-23T00:43:45;17.00;99.90
52615;DHT22;38508;53.158;6.614;2022-07-23T00:46:10;17.10;99.90
52615;DHT22;38508;53.158;6.614;2022-07-23T00:48:36;17.00;99.90
52615;DHT22;38508;53.158;6.614;2022-07-23T00:51:02;17.00;99.90
52615;DHT22;38508;53.158;6.614;2022-07-23T00:53:28;16.90;99.90
52615;DHT22;38508;53.158;6.614;2022-07-23T00:55:54;16.90;99.90
52615;DHT22;38508;53.158;6.614;2022-07-23T00:58:20;16.90;99.90
52615;DHT22;38508;53.158;6.614;2022-07-23T01:00:46;16.90;99.90
52615;DHT22;38508;53.158;6.614;2022-07-23T01:03:12;16.90;99.90
52615;DHT22;38508;53.158;6.614;2022-07-23T01:05:38;16.90;99.90
52615;DHT22;38508;53.158;6.614;2022-07-23T01:08:05;16.90;99.90
52615;DHT22;38508;53.158;6.614;2022-07-23T01:10:31;16.90;99.90
52615;DHT22;38508;53.158;6.614;2022-07-23T01:13:02;16.90;99.90
52615;DHT22;38508;53.158;6.614;2022-07-23T01:15:29;16.90;99.90
52615;DHT22;38508;53.158;6.614;2022-07-23T01:17:55;16.90;99.90
52615;DHT22;38508;53.158;6.614;2022-07-23T01:20:21;16.90;99.90
52615;DHT22;38508;53.158;6.614;2022-07-23T01:22:47;17.00;99.90
52615;DHT22;38508;53.158;6.614;2022-07-23T01:25:13;17.00;99.90
52615;DHT22;38508;53.158;6.614;2022-07-23T01:27:39;17.00;99.90
52615;DHT22;38508;53.158;6.614;2022-07-23T01:30:05;16.90;99.90
52615;DHT22;38508;53.158;6.614;2022-07-23T01:32:31;16.90;99.90
52615;DHT22;38508;53.158;6.614;2022-07-23T01:34:57;16.90;99.90
52615;DHT22;38508;53.158;6.614;2022-07-23T01:37:23;16.80;99.90
52615;DHT22;38508;53.158;6.614;2022-07-23T01:39:48;16.70;99.90
52615;DHT22;38508;53.158;6.614;2022-07-23T01:42:14;16.60;99.90
52615;DHT22;38508;53.158;6.614;2022-07-23T01:44:40;16.70;99.90
52615;DHT22;38508;53.158;6.614;2022-07-23T01:47:05;16.60;99.90
52615;DHT22;38508;53.158;6.614;2022-07-23T01:49:31;16.50;99.90
52615;DHT22;38508;53.158;6.614;2022-07-23T01:51:57;16.40;99.90
52615;DHT22;38508;53.158;6.614;2022-07-23T01:54:29;16.40;99.90
52615;DHT22;38508;53.158;6.614;2022-07-23T01:56:55;16.40;99.90
52615;DHT22;38508;53.158;6.614;2022-07-23T01:59:22;16.40;99.90
52615;DHT22;38508;53.158;6.614;2022-07-23T02:01:47;16.30;99.90
52615;DHT22;38508;53.158;6.614;2022-07-23T02:04:16;16.20;99.90
52615;DHT22;38508;53.158;6.614;2022-07-23T02:06:44;16.20;99.90
52615;DHT22;38508;53.158;6.614;2022-07-23T02:09:10;16.20;99.90
52615;DHT22;38508;53.158;6.614;2022-07-23T02:11:36;16.20;99.90
52615;DHT22;38508;53.158;6.614;2022-07-23T02:14:02;16.10;99.90
52615;DHT22;38508;53.158;6.614;2022-07-23T02:16:28;16.10;99.90
52615;DHT22;38508;53.158;6.614;2022-07-23T02:18:53;16.10;99.90
52615;DHT22;38508;53.158;6.614;2022-07-23T02:21:19;16.00;99.90
52615;DHT22;38508;53.158;6.614;2022-07-23T02:23:44;16.00;99.90
52615;DHT22;38508;53.158;6.614;2022-07-23T02:26:10;16.00;99.90
52615;DHT22;38508;53.158;6.614;2022-07-23T02:28:36;16.00;99.90
52615;DHT22;38508;53.158;6.614;2022-07-23T02:31:02;15.90;99.90
52615;DHT22;38508;53.158;6.614;2022-07-23T02:33:27;15.90;99.90
52615;DHT22;38508;53.158;6.614;2022-07-23T02:35:53;15.90;99.90
52615;DHT22;38508;53.158;6.614;2022-07-23T02:38:19;15.80;99.90
52615;DHT22;38508;53.158;6.614;2022-07-23T02:40:44;15.90;99.90
52615;DHT22;38508;53.158;6.614;2022-07-23T02:43:10;15.90;99.90
52615;DHT22;38508;53.158;6.614;2022-07-23T02:45:35;15.90;99.90
52615;DHT22;38508;53.158;6.614;2022-07-23T02:48:01;15.90;99.90
52615;DHT22;38508;53.158;6.614;2022-07-23T02:50:27;15.90;99.90
52615;DHT22;38508;53.158;6.614;2022-07-23T02:52:53;15.90;99.90
52615;DHT22;38508;53.158;6.614;2022-07-23T02:55:18;16.00;99.90
52615;DHT22;38508;53.158;6.614;2022-07-23T02:57:44;16.10;99.90
52615;DHT22;38508;53.158;6.614;2022-07-23T03:00:10;16.00;99.90
52615;DHT22;38508;53.158;6.614;2022-07-23T03:02:36;16.00;99.90
52615;DHT22;38508;53.158;6.614;2022-07-23T03:05:01;16.10;99.90
52615;DHT22;38508;53.158;6.614;2022-07-23T03:07:27;16.20;99.90
52615;DHT22;38508;53.158;6.614;2022-07-23T03:09:53;16.20;99.90
52615;DHT22;38508;53.158;6.614;2022-07-23T03:12:19;16.20;99.90
52615;DHT22;38508;53.158;6.614;2022-07-23T03:14:44;16.20;99.90
52615;DHT22;38508;53.158;6.614;2022-07-23T03:17:10;16.20;99.90
52615;DHT22;38508;53.158;6.614;2022-07-23T03:19:36;16.20;99.90
52615;DHT22;38508;53.158;6.614;2022-07-23T03:22:03;16.10;99.90
52615;DHT22;38508;53.158;6.614;2022-07-23T03:24:28;16.00;99.90
52615;DHT22;38508;53.158;6.614;2022-07-23T03:27:12;16.00;99.90
52615;DHT22;38508;53.158;6.614;2022-07-23T03:29:38;15.90;99.90
52615;DHT22;38508;53.158;6.614;2022-07-23T03:32:04;15.90;99.90
52615;DHT22;38508;53.158;6.614;2022-07-23T03:34:30;15.80;99.90
52615;DHT22;38508;53.158;6.614;2022-07-23T03:36:55;15.80;99.90
52615;DHT22;38508;53.158;6.614;2022-07-23T03:39:21;15.80;99.90
52615;DHT22;38508;53.158;6.614;2022-07-23T03:41:47;15.80;99.90
52615;DHT22;38508;53.158;6.614;2022-07-23T03:44:12;15.80;99.90
52615;DHT22;38508;53.158;6.614;2022-07-23T03:46:38;15.80;99.90
52615;DHT22;38508;53.158;6.614;2022-07-23T03:49:04;15.80;99.90
52615;DHT22;38508;53.158;6.614;2022-07-23T03:51:29;15.80;99.90
52615;DHT22;38508;53.158;6.614;2022-07-23T03:53:55;15.80;99.90
52615;DHT22;38508;53.158;6.614;2022-07-23T03:56:21;15.80;99.90
52615;DHT22;38508;53.158;6.614;2022-07-23T03:58:47;15.90;99.90
52615;DHT22;38508;53.158;6.614;2022-07-23T04:01:12;16.00;99.90
52615;DHT22;38508;53.158;6.614;2022-07-23T04:03:38;16.00;99.90
52615;DHT22;38508;53.158;6.614;2022-07-23T04:06:05;16.10;99.90
52615;DHT22;38508;53.158;6.614;2022-07-23T04:08:31;16.10;99.90
52615;DHT22;38508;53.158;6.614;2022-07-23T04:10:57;16.00;99.90
52615;DHT22;38508;53.158;6.614;2022-07-23T04:13:23;16.10;99.90
52615;DHT22;38508;53.158;6.614;2022-07-23T04:15:48;16.20;99.90
52615;DHT22;38508;53.158;6.614;2022-07-23T04:18:16;16.20;99.90
52615;DHT22;38508;53.158;6.614;2022-07-23T04:20:45;16.20;99.90
52615;DHT22;38508;53.158;6.614;2022-07-23T04:23:11;16.20;99.90
52615;DHT22;38508;53.158;6.614;2022-07-23T04:25:38;16.30;99.90
52615;DHT22;38508;53.158;6.614;2022-07-23T04:28:04;16.30;99.90
52615;DHT22;38508;53.158;6.614;2022-07-23T04:30:29;16.40;99.90
52615;DHT22;38508;53.158;6.614;2022-07-23T04:32:55;16.40;99.90
52615;DHT22;38508;53.158;6.614;2022-07-23T04:35:21;16.40;99.90
52615;DHT22;38508;53.158;6.614;2022-07-23T04:37:47;16.50;99.90
52615;DHT22;38508;53.158;6.614;2022-07-23T04:40:13;16.60;99.90
52615;DHT22;38508;53.158;6.614;2022-07-23T04:42:39;16.70;99.90
52615;DHT22;38508;53.158;6.614;2022-07-23T04:45:05;16.70;99.90
52615;DHT22;38508;53.158;6.614;2022-07-23T04:47:31;16.70;99.90
52615;DHT22;38508;53.158;6.614;2022-07-23T04:49:57;16.70;99.90
52615;DHT22;38508;53.158;6.614;2022-07-23T04:52:23;16.60;99.90
52615;DHT22;38508;53.158;6.614;2022-07-23T04:54:49;16.50;99.90
52615;DHT22;38508;53.158;6.614;2022-07-23T04:57:15;16.60;99.90
52615;DHT22;38508;53.158;6.614;2022-07-23T04:59:41;16.70;99.90
52615;DHT22;38508;53.158;6.614;2022-07-23T05:02:07;16.70;99.90
52615;DHT22;38508;53.158;6.614;2022-07-23T05:04:33;16.70;99.90
52615;DHT22;38508;53.158;6.614;2022-07-23T05:06:59;16.70;99.90
52615;DHT22;38508;53.158;6.614;2022-07-23T05:09:25;16.80;99.90
52615;DHT22;38508;53.158;6.614;2022-07-23T05:11:50;16.80;99.90
52615;DHT22;38508;53.158;6.614;2022-07-23T05:14:16;16.80;99.90
52615;DHT22;38508;53.158;6.614;2022-07-23T05:16:42;16.80;99.90
52615;DHT22;38508;53.158;6.614;2022-07-23T05:19:07;16.90;99.90
52615;DHT22;38508;53.158;6.614;2022-07-23T05:21:33;16.90;99.90
52615;DHT22;38508;53.158;6.614;2022-07-23T05:23:59;17.00;99.90
52615;DHT22;38508;53.158;6.614;2022-07-23T05:26:25;17.00;99.90
52615;DHT22;38508;53.158;6.614;2022-07-23T05:28:51;17.10;99.90
52615;DHT22;38508;53.158;6.614;2022-07-23T05:31:17;17.00;99.90
52615;DHT22;38508;53.158;6.614;2022-07-23T05:33:43;16.90;99.90
52615;DHT22;38508;53.158;6.614;2022-07-23T05:36:09;16.90;99.90
52615;DHT22;38508;53.158;6.614;2022-07-23T05:38:34;17.00;99.90
52615;DHT22;38508;53.158;6.614;2022-07-23T05:41:01;16.90;99.90
52615;DHT22;38508;53.158;6.614;2022-07-23T05:43:27;17.10;99.90
52615;DHT22;38508;53.158;6.614;2022-07-23T05:45:52;17.00;99.90
52615;DHT22;38508;53.158;6.614;2022-07-23T05:48:19;16.90;99.90
52615;DHT22;38508;53.158;6.614;2022-07-23T05:50:45;17.00;99.90
52615;DHT22;38508;53.158;6.614;2022-07-23T05:53:11;16.90;99.90
52615;DHT22;38508;53.158;6.614;2022-07-23T05:55:37;17.10;99.90
52615;DHT22;38508;53.158;6.614;2022-07-23T05:58:03;17.30;99.90
52615;DHT22;38508;53.158;6.614;2022-07-23T06:00:29;17.50;99.90
52615;DHT22;38508;53.158;6.614;2022-07-23T06:02:55;17.60;99.90
52615;DHT22;38508;53.158;6.614;2022-07-23T06:05:20;17.60;99.90
52615;DHT22;38508;53.158;6.614;2022-07-23T06:07:46;17.60;99.90
52615;DHT22;38508;53.158;6.614;2022-07-23T06:10:12;17.70;99.90
52615;DHT22;38508;53.158;6.614;2022-07-23T06:12:37;17.60;99.90
52615;DHT22;38508;53.158;6.614;2022-07-23T06:15:04;17.60;99.90
52615;DHT22;38508;53.158;6.614;2022-07-23T06:17:29;17.70;99.90
52615;DHT22;38508;53.158;6.614;2022-07-23T06:19:55;17.70;99.90
52615;DHT22;38508;53.158;6.614;2022-07-23T06:22:21;17.80;99.90
52615;DHT22;38508;53.158;6.614;2022-07-23T06:24:48;17.80;99.90
52615;DHT22;38508;53.158;6.614;2022-07-23T06:27:14;17.80;99.90
52615;DHT22;38508;53.158;6.614;2022-07-23T06:29:39;17.90;99.90
52615;DHT22;38508;53.158;6.614;2022-07-23T06:32:07;17.80;99.90
52615;DHT22;38508;53.158;6.614;2022-07-23T06:34:33;17.90;99.90
52615;DHT22;38508;53.158;6.614;2022-07-23T06:36:59;18.00;99.90
52615;DHT22;38508;53.158;6.614;2022-07-23T06:39:25;17.90;99.90
52615;DHT22;38508;53.158;6.614;2022-07-23T06:41:50;18.00;99.90
52615;DHT22;38508;53.158;6.614;2022-07-23T06:44:16;18.00;99.90
52615;DHT22;38508;53.158;6.614;2022-07-23T06:46:42;18.00;99.90
52615;DHT22;38508;53.158;6.614;2022-07-23T06:49:08;18.10;99.90
52615;DHT22;38508;53.158;6.614;2022-07-23T06:51:34;18.20;99.90
52615;DHT22;38508;53.158;6.614;2022-07-23T06:53:59;18.10;99.90
52615;DHT22;38508;53.158;6.614;2022-07-23T06:56:25;18.10;99.90
52615;DHT22;38508;53.158;6.614;2022-07-23T06:58:51;18.20;99.90
52615;DHT22;38508;53.158;6.614;2022-07-23T07:01:16;18.20;99.90
52615;DHT22;38508;53.158;6.614;2022-07-23T07:03:42;18.20;99.90
52615;DHT22;38508;53.158;6.614;2022-07-23T07:06:08;18.40;99.90
52615;DHT22;38508;53.158;6.614;2022-07-23T07:08:34;18.40;99.90
52615;DHT22;38508;53.158;6.614;2022-07-23T07:10:59;18.40;99.90
52615;DHT22;38508;53.158;6.614;2022-07-23T07:13:25;18.50;99.90
52615;DHT22;38508;53.158;6.614;2022-07-23T07:15:50;18.60;99.90
52615;DHT22;38508;53.158;6.614;2022-07-23T07:18:16;18.60;99.90
52615;DHT22;38508;53.158;6.614;2022-07-23T07:20:42;18.80;99.90
52615;DHT22;38508;53.158;6.614;2022-07-23T07:23:08;18.90;99.90
52615;DHT22;38508;53.158;6.614;2022-07-23T07:25:33;19.00;99.90
52615;DHT22;38508;53.158;6.614;2022-07-23T07:27:59;19.20;99.90
52615;DHT22;38508;53.158;6.614;2022-07-23T07:30:25;19.00;99.90
52615;DHT22;38508;53.158;6.614;2022-07-23T07:32:50;19.30;99.90
52615;DHT22;38508;53.158;6.614;2022-07-23T07:35:16;19.60;99.90
52615;DHT22;38508;53.158;6.614;2022-07-23T07:37:42;19.70;99.90
52615;DHT22;38508;53.158;6.614;2022-07-23T07:40:08;19.50;99.90
52615;DHT22;38508;53.158;6.614;2022-07-23T07:42:34;19.60;99.90
52615;DHT22;38508;53.158;6.614;2022-07-23T07:45:00;19.70;99.90
52615;DHT22;38508;53.158;6.614;2022-07-23T07:47:25;19.50;99.90
52615;DHT22;38508;53.158;6.614;2022-07-23T07:49:51;19.30;99.90
52615;DHT22;38508;53.158;6.614;2022-07-23T07:52:17;19.30;99.90
52615;DHT22;38508;53.158;6.614;2022-07-23T07:54:42;19.20;99.90
52615;DHT22;38508;53.158;6.614;2022-07-23T07:57:09;19.20;99.90
52615;DHT22;38508;53.158;6.614;2022-07-23T07:59:35;19.20;99.90
52615;DHT22;38508;53.158;6.614;2022-07-23T08:02:01;19.30;99.90
52615;DHT22;38508;53.158;6.614;2022-07-23T08:04:26;19.50;99.90
52615;DHT22;38508;53.158;6.614;2022-07-23T08:06:52;19.60;99.90
52615;DHT22;38508;53.158;6.614;2022-07-23T08:09:18;19.70;99.90
52615;DHT22;38508;53.158;6.614;2022-07-23T08:11:43;19.80;99.90
52615;DHT22;38508;53.158;6.614;2022-07-23T08:14:09;19.90;99.90
52615;DHT22;38508;53.158;6.614;2022-07-23T08:16:36;19.90;99.90
52615;DHT22;38508;53.158;6.614;2022-07-23T08:19:02;19.90;99.90
52615;DHT22;38508;53.158;6.614;2022-07-23T08:21:28;19.80;99.90
52615;DHT22;38508;53.158;6.614;2022-07-23T08:23:53;19.90;99.90
52615;DHT22;38508;53.158;6.614;2022-07-23T08:26:19;19.90;99.90
52615;DHT22;38508;53.158;6.614;2022-07-23T08:28:44;20.00;99.90
52615;DHT22;38508;53.158;6.614;2022-07-23T08:31:10;20.20;99.90
52615;DHT22;38508;53.158;6.614;2022-07-23T08:33:37;20.40;99.90
52615;DHT22;38508;53.158;6.614;2022-07-23T08:36:03;20.50;99.90
52615;DHT22;38508;53.158;6.614;2022-07-23T08:38:29;20.60;99.90
52615;DHT22;38508;53.158;6.614;2022-07-23T08:40:55;20.80;99.90
52615;DHT22;38508;53.158;6.614;2022-07-23T08:43:26;21.00;99.90
52615;DHT22;38508;53.158;6.614;2022-07-23T08:45:53;21.10;99.90
52615;DHT22;38508;53.158;6.614;2022-07-23T08:48:23;21.30;99.90
52615;DHT22;38508;53.158;6.614;2022-07-23T08:50:54;21.30;99.90
52615;DHT22;38508;53.158;6.614;2022-07-23T08:53:21;20.90;99.90
52615;DHT22;38508;53.158;6.614;2022-07-23T08:55:52;20.80;99.90
52615;DHT22;38508;53.158;6.614;2022-07-23T08:58:18;20.70;99.90
52615;DHT22;38508;53.158;6.614;2022-07-23T09:00:45;20.50;99.90
52615;DHT22;38508;53.158;6.614;2022-07-23T09:03:19;20.40;99.90
52615;DHT22;38508;53.158;6.614;2022-07-23T09:05:46;20.40;99.90
52615;DHT22;38508;53.158;6.614;2022-07-23T09:16:23;20.80;99.90
52615;DHT22;38508;53.158;6.614;2022-07-23T09:21:24;21.10;99.90
52615;DHT22;38508;53.158;6.614;2022-07-23T09:24:08;21.20;99.90
52615;DHT22;38508;53.158;6.614;2022-07-23T09:29:21;21.20;99.90
52615;DHT22;38508;53.158;6.614;2022-07-23T09:32:00;21.00;99.90
52615;DHT22;38508;53.158;6.614;2022-07-23T09:34:36;21.20;99.90
52615;DHT22;38508;53.158;6.614;2022-07-23T09:37:17;21.20;99.90
52615;DHT22;38508;53.158;6.614;2022-07-23T09:39:44;20.90;99.90
52615;DHT22;38508;53.158;6.614;2022-07-23T09:44:46;20.90;99.90
52615;DHT22;38508;53.158;6.614;2022-07-23T09:47:12;21.00;99.90
52615;DHT22;38508;53.158;6.614;2022-07-23T09:49:38;21.20;99.90
52615;DHT22;38508;53.158;6.614;2022-07-23T09:52:04;21.20;99.90
52615;DHT22;38508;53.158;6.614;2022-07-23T09:54:34;21.20;99.90
52615;DHT22;38508;53.158;6.614;2022-07-23T09:59:30;21.20;99.90
52615;DHT22;38508;53.158;6.614;2022-07-23T10:01:57;21.20;99.90
52615;DHT22;38508;53.158;6.614;2022-07-23T10:04:27;21.30;99.90
52615;DHT22;38508;53.158;6.614;2022-07-23T10:06:54;21.20;99.90
52615;DHT22;38508;53.158;6.614;2022-07-23T10:09:29;21.10;99.90
52615;DHT22;38508;53.158;6.614;2022-07-23T10:11:57;21.10;99.90
52615;DHT22;38508;53.158;6.614;2022-07-23T10:14:34;21.20;99.90
52615;DHT22;38508;53.158;6.614;2022-07-23T10:17:02;21.40;99.90
52615;DHT22;38508;53.158;6.614;2022-07-23T10:19:29;21.30;99.90
52615;DHT22;38508;53.158;6.614;2022-07-23T10:22:01;21.30;99.90
52615;DHT22;38508;53.158;6.614;2022-07-23T10:41:01;21.60;99.90
52615;DHT22;38508;53.158;6.614;2022-07-23T10:43:28;21.40;99.90
52615;DHT22;38508;53.158;6.614;2022-07-23T10:45:54;21.10;99.90
52615;DHT22;38508;53.158;6.614;2022-07-23T10:48:22;21.10;99.90
52615;DHT22;38508;53.158;6.614;2022-07-23T10:57:04;21.30;99.90
52615;DHT22;38508;53.158;6.614;2022-07-23T10:59:04;21.30;99.90
52615;DHT22;38508;53.158;6.614;2022-07-23T11:01:37;21.20;99.90
52615;DHT22;38508;53.158;6.614;2022-07-23T11:04:04;21.00;99.90
52615;DHT22;38508;53.158;6.614;2022-07-23T11:15:12;20.70;99.90
52615;DHT22;38508;53.158;6.614;2022-07-23T11:25:09;20.80;99.90
52615;DHT22;38508;53.158;6.614;2022-07-23T11:27:43;20.80;99.90
52615;DHT22;38508;53.158;6.614;2022-07-23T11:30:11;20.80;99.90
52615;DHT22;38508;53.158;6.614;2022-07-23T11:37:48;20.70;99.90
52615;DHT22;38508;53.158;6.614;2022-07-23T11:40:16;20.70;99.90
52615;DHT22;38508;53.158;6.614;2022-07-23T11:42:54;20.70;99.90
52615;DHT22;38508;53.158;6.614;2022-07-23T11:45:21;20.60;99.90
52615;DHT22;38508;53.158;6.614;2022-07-23T11:47:46;20.90;99.90
52615;DHT22;38508;53.158;6.614;2022-07-23T11:50:12;21.10;99.90
52615;DHT22;38508;53.158;6.614;2022-07-23T11:52:39;21.20;99.90
52615;DHT22;38508;53.158;6.614;2022-07-23T11:55:08;21.20;99.90
52615;DHT22;38508;53.158;6.614;2022-07-23T11:57:39;21.50;99.90
52615;DHT22;38508;53.158;6.614;2022-07-23T12:00:09;21.50;99.90
52615;DHT22;38508;53.158;6.614;2022-07-23T12:02:36;21.60;99.90
52615;DHT22;38508;53.158;6.614;2022-07-23T12:05:03;21.70;99.90
52615;DHT22;38508;53.158;6.614;2022-07-23T12:07:37;21.80;99.90
52615;DHT22;38508;53.158;6.614;2022-07-23T12:10:14;21.90;99.90
52615;DHT22;38508;53.158;6.614;2022-07-23T12:12:45;22.10;99.90
52615;DHT22;38508;53.158;6.614;2022-07-23T12:15:13;22.40;99.90
52615;DHT22;38508;53.158;6.614;2022-07-23T12:17:41;23.00;99.90
52615;DHT22;38508;53.158;6.614;2022-07-23T12:20:09;23.40;99.90
52615;DHT22;38508;53.158;6.614;2022-07-23T12:22:48;23.30;99.90
52615;DHT22;38508;53.158;6.614;2022-07-23T12:25:19;23.00;99.90
52615;DHT22;38508;53.158;6.614;2022-07-23T12:27:46;23.00;99.90
52615;DHT22;38508;53.158;6.614;2022-07-23T12:30:24;23.10;99.90
52615;DHT22;38508;53.158;6.614;2022-07-23T12:32:53;23.10;99.90
52615;DHT22;38508;53.158;6.614;2022-07-23T12:35:20;23.30;99.90
52615;DHT22;38508;53.158;6.614;2022-07-23T12:37:47;23.50;99.90
52615;DHT22;38508;53.158;6.614;2022-07-23T12:40:26;23.70;99.90
52615;DHT22;38508;53.158;6.614;2022-07-23T12:43:28;23.70;99.90
52615;DHT22;38508;53.158;6.614;2022-07-23T12:48:33;24.10;99.90
52615;DHT22;38508;53.158;6.614;2022-07-23T12:51:06;23.70;99.90
52615;DHT22;38508;53.158;6.614;2022-07-23T12:53:43;23.70;99.90
52615;DHT22;38508;53.158;6.614;2022-07-23T12:56:12;24.20;99.90
52615;DHT22;38508;53.158;6.614;2022-07-23T13:01:06;25.00;99.90
52615;DHT22;38508;53.158;6.614;2022-07-23T13:03:38;25.10;99.80
52615;DHT22;38508;53.158;6.614;2022-07-23T13:06:07;25.00;99.70
52615;DHT22;38508;53.158;6.614;2022-07-23T13:08:34;25.20;99.70
52615;DHT22;38508;53.158;6.614;2022-07-23T13:11:00;25.30;99.60
52615;DHT22;38508;53.158;6.614;2022-07-23T13:13:28;25.20;99.40
52615;DHT22;38508;53.158;6.614;2022-07-23T13:15:56;25.40;99.50
52615;DHT22;38508;53.158;6.614;2022-07-23T13:18:21;25.30;99.30
52615;DHT22;38508;53.158;6.614;2022-07-23T13:20:48;25.60;99.50
52615;DHT22;38508;53.158;6.614;2022-07-23T13:23:15;25.80;99.50
52615;DHT22;38508;53.158;6.614;2022-07-23T13:25:41;26.00;99.30
52615;DHT22;38508;53.158;6.614;2022-07-23T13:28:07;25.90;99.40
52615;DHT22;38508;53.158;6.614;2022-07-23T13:30:33;26.10;99.30
52615;DHT22;38508;53.158;6.614;2022-07-23T13:32:59;26.00;99.30
52615;DHT22;38508;53.158;6.614;2022-07-23T13:35:26;26.10;99.10
52615;DHT22;38508;53.158;6.614;2022-07-23T13:37:52;26.60;99.00
52615;DHT22;38508;53.158;6.614;2022-07-23T13:40:17;26.70;99.00
52615;DHT22;38508;53.158;6.614;2022-07-23T13:42:43;26.90;99.00
52615;DHT22;38508;53.158;6.614;2022-07-23T13:45:09;27.00;99.20
52615;DHT22;38508;53.158;6.614;2022-07-23T13:47:34;27.10;98.80
52615;DHT22;38508;53.158;6.614;2022-07-23T13:50:00;27.20;98.90
52615;DHT22;38508;53.158;6.614;2022-07-23T13:52:26;27.10;98.90
52615;DHT22;38508;53.158;6.614;2022-07-23T13:54:51;27.00;98.90
52615;DHT22;38508;53.158;6.614;2022-07-23T13:57:17;27.10;98.70
52615;DHT22;38508;53.158;6.614;2022-07-23T13:59:43;27.10;98.80
52615;DHT22;38508;53.158;6.614;2022-07-23T14:02:09;27.00;98.70
52615;DHT22;38508;53.158;6.614;2022-07-23T14:04:35;26.80;98.60
52615;DHT22;38508;53.158;6.614;2022-07-23T14:07:01;27.00;98.60
52615;DHT22;38508;53.158;6.614;2022-07-23T14:09:27;26.70;98.60
52615;DHT22;38508;53.158;6.614;2022-07-23T14:11:53;26.50;98.80
52615;DHT22;38508;53.158;6.614;2022-07-23T14:14:19;26.70;98.80
52615;DHT22;38508;53.158;6.614;2022-07-23T14:16:45;26.40;98.80
52615;DHT22;38508;53.158;6.614;2022-07-23T14:19:10;25.80;98.80
52615;DHT22;38508;53.158;6.614;2022-07-23T14:21:37;26.10;99.10
52615;DHT22;38508;53.158;6.614;2022-07-23T14:24:03;26.50;98.80
52615;DHT22;38508;53.158;6.614;2022-07-23T14:26:29;26.30;99.00
52615;DHT22;38508;53.158;6.614;2022-07-23T14:28:55;26.20;99.10
52615;DHT22;38508;53.158;6.614;2022-07-23T14:31:21;26.60;98.90
52615;DHT22;38508;53.158;6.614;2022-07-23T14:33:48;26.70;98.60
52615;DHT22;38508;53.158;6.614;2022-07-23T14:36:13;26.80;98.60
52615;DHT22;38508;53.158;6.614;2022-07-23T14:38:39;26.90;98.90
52615;DHT22;38508;53.158;6.614;2022-07-23T14:41:05;27.10;98.70
52615;DHT22;38508;53.158;6.614;2022-07-23T14:43:35;26.90;98.70
52615;DHT22;38508;53.158;6.614;2022-07-23T14:46:00;27.00;98.60
52615;DHT22;38508;53.158;6.614;2022-07-23T14:48:26;26.70;98.40
52615;DHT22;38508;53.158;6.614;2022-07-23T14:50:52;26.60;98.90
52615;DHT22;38508;53.158;6.614;2022-07-23T14:53:17;26.70;98.70
52615;DHT22;38508;53.158;6.614;2022-07-23T14:55:43;27.00;98.90
52615;DHT22;38508;53.158;6.614;2022-07-23T14:58:09;27.50;98.60
52615;DHT22;38508;53.158;6.614;2022-07-23T15:00:35;27.70;98.70
52615;DHT22;38508;53.158;6.614;2022-07-23T15:03:01;27.30;98.70
52615;DHT22;38508;53.158;6.614;2022-07-23T15:05:27;26.90;98.50
52615;DHT22;38508;53.158;6.614;2022-07-23T15:07:54;26.80;98.60
52615;DHT22;38508;53.158;6.614;2022-07-23T15:10:20;26.60;98.70
52615;DHT22;38508;53.158;6.614;2022-07-23T15:12:45;27.00;98.60
52615;DHT22;38508;53.158;6.614;2022-07-23T15:15:12;27.50;98.90
52615;DHT22;38508;53.158;6.614;2022-07-23T15:17:38;27.40;98.50
52615;DHT22;38508;53.158;6.614;2022-07-23T15:20:04;27.00;98.60
52615;DHT22;38508;53.158;6.614;2022-07-23T15:22:30;26.70;98.60
52615;DHT22;38508;53.158;6.614;2022-07-23T15:24:56;26.50;98.80
52615;DHT22;38508;53.158;6.614;2022-07-23T15:27:21;26.90;98.90
52615;DHT22;38508;53.158;6.614;2022-07-23T15:29:47;27.50;98.80
52615;DHT22;38508;53.158;6.614;2022-07-23T15:32:13;27.90;98.20
52615;DHT22;38508;53.158;6.614;2022-07-23T15:34:39;27.90;98.60
52615;DHT22;38508;53.158;6.614;2022-07-23T15:37:05;27.80;98.50
52615;DHT22;38508;53.158;6.614;2022-07-23T15:39:32;27.70;98.50
52615;DHT22;38508;53.158;6.614;2022-07-23T15:41:59;27.60;98.40
52615;DHT22;38508;53.158;6.614;2022-07-23T15:44:25;27.00;98.40
52615;DHT22;38508;53.158;6.614;2022-07-23T15:46:51;26.70;98.40
52615;DHT22;38508;53.158;6.614;2022-07-23T15:49:16;26.50;98.50
52615;DHT22;38508;53.158;6.614;2022-07-23T15:51:42;26.90;98.60
52615;DHT22;38508;53.158;6.614;2022-07-23T15:54:08;27.20;98.50
52615;DHT22;38508;53.158;6.614;2022-07-23T15:56:34;27.50;98.70
52615;DHT22;38508;53.158;6.614;2022-07-23T15:58:59;27.70;98.30
52615;DHT22;38508;53.158;6.614;2022-07-23T16:01:25;27.60;98.50
52615;DHT22;38508;53.158;6.614;2022-07-23T16:03:50;27.70;98.50
52615;DHT22;38508;53.158;6.614;2022-07-23T16:06:16;27.80;98.60
52615;DHT22;38508;53.158;6.614;2022-07-23T16:08:42;28.10;98.30
52615;DHT22;38508;53.158;6.614;2022-07-23T16:11:08;28.30;98.20
52615;DHT22;38508;53.158;6.614;2022-07-23T16:13:33;28.30;98.20
52615;DHT22;38508;53.158;6.614;2022-07-23T16:16:00;27.90;98.20
52615;DHT22;38508;53.158;6.614;2022-07-23T16:18:26;28.00;98.40
52615;DHT22;38508;53.158;6.614;2022-07-23T16:20:53;28.10;98.10
52615;DHT22;38508;53.158;6.614;2022-07-23T16:23:18;27.50;98.20
52615;DHT22;38508;53.158;6.614;2022-07-23T16:25:44;27.60;98.40
52615;DHT22;38508;53.158;6.614;2022-07-23T16:28:10;27.50;98.10
52615;DHT22;38508;53.158;6.614;2022-07-23T16:30:37;27.20;98.20
52615;DHT22;38508;53.158;6.614;2022-07-23T16:33:05;27.30;98.20
52615;DHT22;38508;53.158;6.614;2022-07-23T16:35:30;27.40;98.80